sensor_id;sensor_type;location;lat;lon;timestamp;P1;durP1;ratioP1;P2;durP2;ratioP2
15271;SDS011;7737;51.578;7.268;2023-03-11T00:00:51;2.20;;;1.90;;
15271;SDS011;7737;51.578;7.268;2023-03-11T00:03:18;2.70;;;2.10;;
15271;SDS011;7737;51.578;7.268;2023-03-11T00:05:47;1.97;;;1.80;;
15271;SDS011;7737;51.578;7.268;2023-03-11T00:08:14;1.93;;;1.73;;
15271;SDS011;7737;51.578;7.268;2023-03-11T00:10:43;2.67;;;2.07;;
15271;SDS011;7737;51.578;7.268;2023-03-11T00:13:11;2.77;;;1.90;;
15271;SDS011;7737;51.578;7.268;2023-03-11T00:15:39;2.67;;;2.10;;
15271;SDS011;7737;51.578;7.268;2023-03-11T00:18:11;2.70;;;2.10;;
15271;SDS011;7737;51.578;7.268;2023-03-11T00:20:39;2.40;;;2.20;;
15271;SDS011;7737;51.578;7.268;2023-03-11T00:23:07;2.23;;;2.03;;
15271;SDS011;7737;51.578;7.268;2023-03-11T00:25:34;2.50;;;2.30;;
15271;SDS011;7737;51.578;7.268;2023-03-11T00:28:03;3.73;;;2.57;;
15271;SDS011;7737;51.578;7.268;2023-03-11T00:30:31;2.60;;;2.40;;
15271;SDS011;7737;51.578;7.268;2023-03-11T00:32:59;3.63;;;2.50;;
15271;SDS011;7737;51.578;7.268;2023-03-11T00:35:28;3.13;;;2.33;;
15271;SDS011;7737;51.578;7.268;2023-03-11T00:37:57;3.27;;;2.60;;
15271;SDS011;7737;51.578;7.268;2023-03-11T00:40:25;4.00;;;2.53;;
15271;SDS011;7737;51.578;7.268;2023-03-11T00:42:53;3.27;;;2.20;;
15271;SDS011;7737;51.578;7.268;2023-03-11T00:45:19;3.40;;;2.40;;
15271;SDS011;7737;51.578;7.268;2023-03-11T00:47:46;2.57;;;2.30;;
15271;SDS011;7737;51.578;7.268;2023-03-11T00:50:14;2.60;;;2.40;;
15271;SDS011;7737;51.578;7.268;2023-03-11T00:52:44;3.00;;;2.60;;
15271;SDS011;7737;51.578;7.268;2023-03-11T00:55:12;3.00;;;2.50;;
15271;SDS011;7737;51.578;7.268;2023-03-11T00:57:40;2.63;;;2.40;;
15271;SDS011;7737;51.578;7.268;2023-03-11T01:00:07;4.87;;;2.40;;
15271;SDS011;7737;51.578;7.268;2023-03-11T01:02:38;4.20;;;2.93;;
15271;SDS011;7737;51.578;7.268;2023-03-11T01:05:04;3.67;;;2.63;;
15271;SDS011;7737;51.578;7.268;2023-03-11T01:07:32;3.80;;;2.30;;
15271;SDS011;7737;51.578;7.268;2023-03-11T01:10:00;4.13;;;2.30;;
15271;SDS011;7737;51.578;7.268;2023-03-11T01:12:27;4.07;;;2.70;;
15271;SDS011;7737;51.578;7.268;2023-03-11T01:14:53;3.80;;;2.50;;
15271;SDS011;7737;51.578;7.268;2023-03-11T01:17:20;3.67;;;2.20;;
15271;SDS011;7737;51.578;7.268;2023-03-11T01:19:47;2.73;;;2.33;;
15271;SDS011;7737;51.578;7.268;2023-03-11T01:22:13;4.13;;;2.30;;
15271;SDS011;7737;51.578;7.268;2023-03-11T01:24:40;4.27;;;2.30;;
15271;SDS011;7737;51.578;7.268;2023-03-11T01:27:08;4.47;;;2.27;;
15271;SDS011;7737;51.578;7.268;2023-03-11T01:29:34;2.57;;;2.10;;
15271;SDS011;7737;51.578;7.268;2023-03-11T01:32:01;4.17;;;2.27;;
15271;SDS011;7737;51.578;7.268;2023-03-11T01:34:27;4.43;;;2.03;;
15271;SDS011;7737;51.578;7.268;2023-03-11T01:36:54;3.67;;;2.00;;
15271;SDS011;7737;51.578;7.268;2023-03-11T01:39:20;2.90;;;1.97;;
15271;SDS011;7737;51.578;7.268;2023-03-11T01:41:47;5.23;;;1.93;;
15271;SDS011;7737;51.578;7.268;2023-03-11T01:44:15;3.67;;;1.80;;
15271;SDS011;7737;51.578;7.268;2023-03-11T01:49:41;4.70;;;1.97;;
15271;SDS011;7737;51.578;7.268;2023-03-11T01:52:08;3.70;;;1.70;;
15271;SDS011;7737;51.578;7.268;2023-03-11T01:54:35;3.27;;;1.67;;
15271;SDS011;7737;51.578;7.268;2023-03-11T01:57:04;3.97;;;1.40;;
15271;SDS011;7737;51.578;7.268;2023-03-11T01:59:35;4.17;;;1.63;;
15271;SDS011;7737;51.578;7.268;2023-03-11T02:02:08;2.33;;;1.50;;
15271;SDS011;7737;51.578;7.268;2023-03-11T02:04:39;3.07;;;1.60;;
15271;SDS011;7737;51.578;7.268;2023-03-11T02:07:07;2.27;;;1.60;;
15271;SDS011;7737;51.578;7.268;2023-03-11T02:09:35;3.90;;;1.50;;
15271;SDS011;7737;51.578;7.268;2023-03-11T02:12:02;2.87;;;1.53;;
15271;SDS011;7737;51.578;7.268;2023-03-11T02:14:30;3.50;;;1.77;;
15271;SDS011;7737;51.578;7.268;2023-03-11T02:16:59;4.80;;;1.77;;
15271;SDS011;7737;51.578;7.268;2023-03-11T02:19:27;4.63;;;2.10;;
15271;SDS011;7737;51.578;7.268;2023-03-11T02:22:00;3.73;;;2.00;;
15271;SDS011;7737;51.578;7.268;2023-03-11T02:24:29;3.47;;;1.70;;
15271;SDS011;7737;51.578;7.268;2023-03-11T02:27:02;2.73;;;1.43;;
15271;SDS011;7737;51.578;7.268;2023-03-11T02:29:32;5.17;;;1.50;;
15271;SDS011;7737;51.578;7.268;2023-03-11T02:31:59;6.43;;;1.53;;
15271;SDS011;7737;51.578;7.268;2023-03-11T02:34:30;4.17;;;1.50;;
15271;SDS011;7737;51.578;7.268;2023-03-11T02:36:59;5.60;;;1.40;;
15271;SDS011;7737;51.578;7.268;2023-03-11T02:39:29;2.70;;;1.30;;
15271;SDS011;7737;51.578;7.268;2023-03-11T02:41:56;3.27;;;1.60;;
15271;SDS011;7737;51.578;7.268;2023-03-11T02:44:25;4.67;;;1.50;;
15271;SDS011;7737;51.578;7.268;2023-03-11T02:46:52;4.07;;;1.17;;
15271;SDS011;7737;51.578;7.268;2023-03-11T02:49:18;3.30;;;1.30;;
15271;SDS011;7737;51.578;7.268;2023-03-11T02:51:46;3.40;;;1.30;;
15271;SDS011;7737;51.578;7.268;2023-03-11T02:54:13;6.90;;;1.53;;
15271;SDS011;7737;51.578;7.268;2023-03-11T02:56:39;4.70;;;1.57;;
15271;SDS011;7737;51.578;7.268;2023-03-11T02:59:06;3.17;;;1.73;;
15271;SDS011;7737;51.578;7.268;2023-03-11T03:01:33;6.37;;;1.60;;
15271;SDS011;7737;51.578;7.268;2023-03-11T03:04:00;6.40;;;1.80;;
15271;SDS011;7737;51.578;7.268;2023-03-11T03:06:27;4.67;;;2.20;;
15271;SDS011;7737;51.578;7.268;2023-03-11T03:08:53;5.77;;;1.80;;
15271;SDS011;7737;51.578;7.268;2023-03-11T03:11:20;4.60;;;1.83;;
15271;SDS011;7737;51.578;7.268;2023-03-11T03:13:47;6.73;;;1.87;;
15271;SDS011;7737;51.578;7.268;2023-03-11T03:16:13;4.63;;;1.70;;
15271;SDS011;7737;51.578;7.268;2023-03-11T03:18:41;5.17;;;1.60;;
15271;SDS011;7737;51.578;7.268;2023-03-11T03:21:07;5.00;;;1.87;;
15271;SDS011;7737;51.578;7.268;2023-03-11T03:23:34;6.40;;;2.40;;
15271;SDS011;7737;51.578;7.268;2023-03-11T03:26:01;8.23;;;2.20;;
15271;SDS011;7737;51.578;7.268;2023-03-11T03:28:29;5.20;;;2.03;;
15271;SDS011;7737;51.578;7.268;2023-03-11T03:30:55;7.13;;;2.60;;
15271;SDS011;7737;51.578;7.268;2023-03-11T03:33:28;7.03;;;2.10;;
15271;SDS011;7737;51.578;7.268;2023-03-11T03:35:55;6.53;;;2.03;;
15271;SDS011;7737;51.578;7.268;2023-03-11T03:38:22;9.17;;;2.20;;
15271;SDS011;7737;51.578;7.268;2023-03-11T03:40:48;7.40;;;1.83;;
15271;SDS011;7737;51.578;7.268;2023-03-11T03:43:15;6.13;;;1.87;;
15271;SDS011;7737;51.578;7.268;2023-03-11T03:45:41;6.97;;;1.80;;
15271;SDS011;7737;51.578;7.268;2023-03-11T03:48:08;7.03;;;2.03;;
15271;SDS011;7737;51.578;7.268;2023-03-11T03:50:34;6.97;;;2.30;;
15271;SDS011;7737;51.578;7.268;2023-03-11T03:53:02;11.70;;;1.90;;
15271;SDS011;7737;51.578;7.268;2023-03-11T03:55:28;7.27;;;2.23;;
15271;SDS011;7737;51.578;7.268;2023-03-11T03:57:55;5.93;;;1.90;;
15271;SDS011;7737;51.578;7.268;2023-03-11T04:00:21;6.97;;;1.73;;
15271;SDS011;7737;51.578;7.268;2023-03-11T04:02:48;6.10;;;1.80;;
15271;SDS011;7737;51.578;7.268;2023-03-11T04:05:14;6.30;;;2.00;;
15271;SDS011;7737;51.578;7.268;2023-03-11T04:07:41;5.00;;;1.80;;
15271;SDS011;7737;51.578;7.268;2023-03-11T04:10:09;6.23;;;1.63;;
15271;SDS011;7737;51.578;7.268;2023-03-11T04:12:39;4.77;;;1.50;;
15271;SDS011;7737;51.578;7.268;2023-03-11T04:15:06;6.30;;;1.70;;
15271;SDS011;7737;51.578;7.268;2023-03-11T04:17:33;6.90;;;1.80;;
15271;SDS011;7737;51.578;7.268;2023-03-11T04:19:59;9.40;;;1.97;;
15271;SDS011;7737;51.578;7.268;2023-03-11T04:22:26;8.70;;;2.00;;
15271;SDS011;7737;51.578;7.268;2023-03-11T04:24:53;6.90;;;1.90;;
15271;SDS011;7737;51.578;7.268;2023-03-11T04:27:20;8.10;;;2.00;;
15271;SDS011;7737;51.578;7.268;2023-03-11T04:29:47;6.43;;;1.90;;
15271;SDS011;7737;51.578;7.268;2023-03-11T04:32:13;9.80;;;2.07;;
15271;SDS011;7737;51.578;7.268;2023-03-11T04:34:40;4.37;;;1.70;;
15271;SDS011;7737;51.578;7.268;2023-03-11T04:37:06;7.17;;;1.90;;
15271;SDS011;7737;51.578;7.268;2023-03-11T04:39:33;6.70;;;1.93;;
15271;SDS011;7737;51.578;7.268;2023-03-11T04:41:59;6.70;;;1.73;;
15271;SDS011;7737;51.578;7.268;2023-03-11T04:44:27;6.73;;;1.90;;
15271;SDS011;7737;51.578;7.268;2023-03-11T04:46:54;5.93;;;1.87;;
15271;SDS011;7737;51.578;7.268;2023-03-11T04:49:20;5.63;;;1.70;;
15271;SDS011;7737;51.578;7.268;2023-03-11T04:51:47;8.70;;;2.20;;
15271;SDS011;7737;51.578;7.268;2023-03-11T04:54:13;8.30;;;1.97;;
15271;SDS011;7737;51.578;7.268;2023-03-11T04:56:40;7.63;;;2.00;;
15271;SDS011;7737;51.578;7.268;2023-03-11T04:59:06;5.37;;;1.70;;
15271;SDS011;7737;51.578;7.268;2023-03-11T05:01:34;7.47;;;1.77;;
15271;SDS011;7737;51.578;7.268;2023-03-11T05:04:00;5.17;;;2.00;;
15271;SDS011;7737;51.578;7.268;2023-03-11T05:06:27;7.97;;;1.77;;
15271;SDS011;7737;51.578;7.268;2023-03-11T05:08:54;5.03;;;1.80;;
15271;SDS011;7737;51.578;7.268;2023-03-11T05:11:20;5.57;;;1.63;;
15271;SDS011;7737;51.578;7.268;2023-03-11T05:13:46;6.70;;;2.10;;
15271;SDS011;7737;51.578;7.268;2023-03-11T05:16:13;7.90;;;1.93;;
15271;SDS011;7737;51.578;7.268;2023-03-11T05:18:41;6.40;;;1.80;;
15271;SDS011;7737;51.578;7.268;2023-03-11T05:21:07;10.23;;;1.93;;
15271;SDS011;7737;51.578;7.268;2023-03-11T05:23:34;6.53;;;2.23;;
15271;SDS011;7737;51.578;7.268;2023-03-11T05:26:00;7.80;;;1.97;;
15271;SDS011;7737;51.578;7.268;2023-03-11T05:28:27;5.10;;;1.80;;
15271;SDS011;7737;51.578;7.268;2023-03-11T05:30:53;6.57;;;1.90;;
15271;SDS011;7737;51.578;7.268;2023-03-11T05:33:20;7.77;;;1.57;;
15271;SDS011;7737;51.578;7.268;2023-03-11T05:35:48;7.07;;;1.67;;
15271;SDS011;7737;51.578;7.268;2023-03-11T05:38:15;6.67;;;1.70;;
15271;SDS011;7737;51.578;7.268;2023-03-11T05:40:42;7.33;;;1.80;;
15271;SDS011;7737;51.578;7.268;2023-03-11T05:43:08;6.63;;;1.80;;
15271;SDS011;7737;51.578;7.268;2023-03-11T05:45:35;11.50;;;1.80;;
15271;SDS011;7737;51.578;7.268;2023-03-11T05:48:01;6.27;;;1.70;;
15271;SDS011;7737;51.578;7.268;2023-03-11T05:50:28;8.90;;;1.80;;
15271;SDS011;7737;51.578;7.268;2023-03-11T05:52:56;7.40;;;1.60;;
15271;SDS011;7737;51.578;7.268;2023-03-11T05:55:22;5.70;;;1.73;;
15271;SDS011;7737;51.578;7.268;2023-03-11T05:57:49;8.33;;;1.70;;
15271;SDS011;7737;51.578;7.268;2023-03-11T06:00:16;6.40;;;2.20;;
15271;SDS011;7737;51.578;7.268;2023-03-11T06:02:44;6.17;;;2.00;;
15271;SDS011;7737;51.578;7.268;2023-03-11T06:05:11;7.20;;;1.70;;
15271;SDS011;7737;51.578;7.268;2023-03-11T06:07:37;6.57;;;1.60;;
15271;SDS011;7737;51.578;7.268;2023-03-11T06:10:06;5.97;;;1.60;;
15271;SDS011;7737;51.578;7.268;2023-03-11T06:12:33;5.90;;;1.90;;
15271;SDS011;7737;51.578;7.268;2023-03-11T06:15:00;5.70;;;1.63;;
15271;SDS011;7737;51.578;7.268;2023-03-11T06:17:26;6.03;;;1.70;;
15271;SDS011;7737;51.578;7.268;2023-03-11T06:19:53;4.00;;;1.73;;
15271;SDS011;7737;51.578;7.268;2023-03-11T06:22:19;8.73;;;1.77;;
15271;SDS011;7737;51.578;7.268;2023-03-11T06:24:46;6.07;;;1.70;;
15271;SDS011;7737;51.578;7.268;2023-03-11T06:27:13;6.17;;;1.80;;
15271;SDS011;7737;51.578;7.268;2023-03-11T06:29:40;6.53;;;1.63;;
15271;SDS011;7737;51.578;7.268;2023-03-11T06:32:06;6.30;;;2.10;;
15271;SDS011;7737;51.578;7.268;2023-03-11T06:34:33;8.63;;;2.80;;
15271;SDS011;7737;51.578;7.268;2023-03-11T06:36:59;8.93;;;2.10;;
15271;SDS011;7737;51.578;7.268;2023-03-11T06:39:26;9.30;;;2.07;;
15271;SDS011;7737;51.578;7.268;2023-03-11T06:41:52;6.77;;;1.97;;
15271;SDS011;7737;51.578;7.268;2023-03-11T06:44:20;5.83;;;1.77;;
15271;SDS011;7737;51.578;7.268;2023-03-11T06:46:46;5.83;;;1.80;;
15271;SDS011;7737;51.578;7.268;2023-03-11T06:49:13;6.13;;;1.90;;
15271;SDS011;7737;51.578;7.268;2023-03-11T06:51:39;5.23;;;1.80;;
15271;SDS011;7737;51.578;7.268;2023-03-11T06:54:06;5.40;;;1.67;;
15271;SDS011;7737;51.578;7.268;2023-03-11T06:56:34;6.60;;;1.70;;
15271;SDS011;7737;51.578;7.268;2023-03-11T06:59:00;5.10;;;1.67;;
15271;SDS011;7737;51.578;7.268;2023-03-11T07:01:28;5.60;;;1.90;;
15271;SDS011;7737;51.578;7.268;2023-03-11T07:03:54;3.23;;;1.80;;
15271;SDS011;7737;51.578;7.268;2023-03-11T07:06:22;9.40;;;1.87;;
15271;SDS011;7737;51.578;7.268;2023-03-11T07:08:50;5.67;;;1.63;;
15271;SDS011;7737;51.578;7.268;2023-03-11T07:11:18;5.87;;;1.77;;
15271;SDS011;7737;51.578;7.268;2023-03-11T07:13:46;7.83;;;1.70;;
15271;SDS011;7737;51.578;7.268;2023-03-11T07:16:13;6.07;;;1.97;;
15271;SDS011;7737;51.578;7.268;2023-03-11T07:18:43;7.83;;;2.20;;
15271;SDS011;7737;51.578;7.268;2023-03-11T07:21:10;6.47;;;1.80;;
15271;SDS011;7737;51.578;7.268;2023-03-11T07:23:39;7.30;;;2.17;;
15271;SDS011;7737;51.578;7.268;2023-03-11T07:26:07;7.17;;;2.33;;
15271;SDS011;7737;51.578;7.268;2023-03-11T07:28:34;7.63;;;2.37;;
15271;SDS011;7737;51.578;7.268;2023-03-11T07:31:05;6.40;;;1.97;;
15271;SDS011;7737;51.578;7.268;2023-03-11T07:33:32;4.43;;;1.73;;
15271;SDS011;7737;51.578;7.268;2023-03-11T07:36:03;7.50;;;2.50;;
15271;SDS011;7737;51.578;7.268;2023-03-11T07:38:30;5.13;;;2.20;;
15271;SDS011;7737;51.578;7.268;2023-03-11T07:40:57;7.07;;;1.90;;
15271;SDS011;7737;51.578;7.268;2023-03-11T07:43:24;5.97;;;1.73;;
15271;SDS011;7737;51.578;7.268;2023-03-11T07:45:50;4.37;;;1.67;;
15271;SDS011;7737;51.578;7.268;2023-03-11T07:48:18;5.20;;;1.97;;
15271;SDS011;7737;51.578;7.268;2023-03-11T07:50:45;4.77;;;1.70;;
15271;SDS011;7737;51.578;7.268;2023-03-11T07:53:13;8.83;;;1.80;;
15271;SDS011;7737;51.578;7.268;2023-03-11T07:55:39;6.17;;;1.80;;
15271;SDS011;7737;51.578;7.268;2023-03-11T07:58:06;6.03;;;1.67;;
15271;SDS011;7737;51.578;7.268;2023-03-11T08:00:32;6.40;;;1.60;;
15271;SDS011;7737;51.578;7.268;2023-03-11T08:02:59;4.40;;;1.60;;
15271;SDS011;7737;51.578;7.268;2023-03-11T08:05:25;7.10;;;1.83;;
15271;SDS011;7737;51.578;7.268;2023-03-11T08:07:52;4.73;;;1.47;;
15271;SDS011;7737;51.578;7.268;2023-03-11T08:10:20;2.80;;;1.60;;
15271;SDS011;7737;51.578;7.268;2023-03-11T08:12:46;5.10;;;1.40;;
15271;SDS011;7737;51.578;7.268;2023-03-11T08:15:13;3.30;;;1.40;;
15271;SDS011;7737;51.578;7.268;2023-03-11T08:17:40;4.17;;;1.63;;
15271;SDS011;7737;51.578;7.268;2023-03-11T08:20:07;4.90;;;1.63;;
15271;SDS011;7737;51.578;7.268;2023-03-11T08:22:35;8.43;;;1.70;;
15271;SDS011;7737;51.578;7.268;2023-03-11T08:25:02;5.57;;;1.40;;
15271;SDS011;7737;51.578;7.268;2023-03-11T08:27:30;4.93;;;1.40;;
15271;SDS011;7737;51.578;7.268;2023-03-11T08:29:56;2.73;;;1.33;;
15271;SDS011;7737;51.578;7.268;2023-03-11T08:32:23;5.70;;;1.30;;
15271;SDS011;7737;51.578;7.268;2023-03-11T08:34:50;3.70;;;1.00;;
15271;SDS011;7737;51.578;7.268;2023-03-11T08:37:16;5.07;;;1.20;;
15271;SDS011;7737;51.578;7.268;2023-03-11T08:39:42;4.47;;;1.33;;
15271;SDS011;7737;51.578;7.268;2023-03-11T08:42:09;3.97;;;1.17;;
15271;SDS011;7737;51.578;7.268;2023-03-11T08:44:37;6.40;;;1.20;;
15271;SDS011;7737;51.578;7.268;2023-03-11T08:47:04;4.77;;;1.60;;
15271;SDS011;7737;51.578;7.268;2023-03-11T08:49:30;3.00;;;1.17;;
15271;SDS011;7737;51.578;7.268;2023-03-11T08:51:56;4.67;;;1.43;;
15271;SDS011;7737;51.578;7.268;2023-03-11T08:54:23;4.60;;;1.37;;
15271;SDS011;7737;51.578;7.268;2023-03-11T08:56:50;6.23;;;1.30;;
15271;SDS011;7737;51.578;7.268;2023-03-11T08:59:17;4.47;;;1.00;;
15271;SDS011;7737;51.578;7.268;2023-03-11T09:01:44;4.47;;;1.00;;
15271;SDS011;7737;51.578;7.268;2023-03-11T09:04:11;4.13;;;1.10;;
15271;SDS011;7737;51.578;7.268;2023-03-11T09:06:40;4.77;;;0.90;;
15271;SDS011;7737;51.578;7.268;2023-03-11T09:09:08;3.93;;;1.03;;
15271;SDS011;7737;51.578;7.268;2023-03-11T09:11:35;4.70;;;0.97;;
15271;SDS011;7737;51.578;7.268;2023-03-11T09:14:02;3.87;;;0.83;;
15271;SDS011;7737;51.578;7.268;2023-03-11T09:16:28;5.17;;;1.30;;
15271;SDS011;7737;51.578;7.268;2023-03-11T09:18:56;5.17;;;1.10;;
15271;SDS011;7737;51.578;7.268;2023-03-11T09:21:24;4.43;;;1.00;;
15271;SDS011;7737;51.578;7.268;2023-03-11T09:23:51;3.37;;;1.17;;
15271;SDS011;7737;51.578;7.268;2023-03-11T09:26:17;2.47;;;1.10;;
15271;SDS011;7737;51.578;7.268;2023-03-11T09:28:43;3.97;;;1.10;;
15271;SDS011;7737;51.578;7.268;2023-03-11T09:31:13;5.30;;;1.00;;
15271;SDS011;7737;51.578;7.268;2023-03-11T09:33:40;2.43;;;1.20;;
15271;SDS011;7737;51.578;7.268;2023-03-11T09:36:09;5.60;;;1.10;;
15271;SDS011;7737;51.578;7.268;2023-03-11T09:38:38;6.17;;;1.23;;
15271;SDS011;7737;51.578;7.268;2023-03-11T09:41:06;4.47;;;1.17;;
15271;SDS011;7737;51.578;7.268;2023-03-11T09:43:50;4.03;;;1.00;;
15271;SDS011;7737;51.578;7.268;2023-03-11T09:46:32;3.23;;;0.70;;
15271;SDS011;7737;51.578;7.268;2023-03-11T09:49:34;4.90;;;1.23;;
15271;SDS011;7737;51.578;7.268;2023-03-11T09:52:13;5.93;;;1.40;;
15271;SDS011;7737;51.578;7.268;2023-03-11T09:54:41;3.43;;;1.50;;
15271;SDS011;7737;51.578;7.268;2023-03-11T09:57:11;6.10;;;1.10;;
15271;SDS011;7737;51.578;7.268;2023-03-11T09:59:43;3.30;;;0.80;;
15271;SDS011;7737;51.578;7.268;2023-03-11T10:02:13;3.10;;;0.90;;
15271;SDS011;7737;51.578;7.268;2023-03-11T10:04:41;5.47;;;1.23;;
15271;SDS011;7737;51.578;7.268;2023-03-11T10:07:16;2.90;;;0.90;;
15271;SDS011;7737;51.578;7.268;2023-03-11T10:09:47;4.63;;;0.97;;
15271;SDS011;7737;51.578;7.268;2023-03-11T10:12:22;4.60;;;0.70;;
15271;SDS011;7737;51.578;7.268;2023-03-11T10:15:07;3.47;;;0.87;;
15271;SDS011;7737;51.578;7.268;2023-03-11T10:17:54;5.87;;;0.70;;
15271;SDS011;7737;51.578;7.268;2023-03-11T10:20:31;3.00;;;0.87;;
15271;SDS011;7737;51.578;7.268;2023-03-11T10:23:08;5.03;;;0.77;;
15271;SDS011;7737;51.578;7.268;2023-03-11T10:25:46;6.47;;;0.77;;
15271;SDS011;7737;51.578;7.268;2023-03-11T10:28:20;2.93;;;0.70;;
15271;SDS011;7737;51.578;7.268;2023-03-11T10:30:50;5.40;;;1.00;;
15271;SDS011;7737;51.578;7.268;2023-03-11T10:33:20;3.47;;;0.70;;
15271;SDS011;7737;51.578;7.268;2023-03-11T10:35:52;3.50;;;0.70;;
15271;SDS011;7737;51.578;7.268;2023-03-11T10:38:22;5.90;;;1.60;;
15271;SDS011;7737;51.578;7.268;2023-03-11T10:40:52;3.53;;;0.97;;
15271;SDS011;7737;51.578;7.268;2023-03-11T10:43:23;4.13;;;0.60;;
15271;SDS011;7737;51.578;7.268;2023-03-11T10:45:52;5.37;;;0.77;;
15271;SDS011;7737;51.578;7.268;2023-03-11T10:48:19;4.60;;;0.90;;
15271;SDS011;7737;51.578;7.268;2023-03-11T10:50:49;7.13;;;0.97;;
15271;SDS011;7737;51.578;7.268;2023-03-11T10:53:21;2.60;;;0.87;;
15271;SDS011;7737;51.578;7.268;2023-03-11T10:55:48;4.87;;;0.90;;
15271;SDS011;7737;51.578;7.268;2023-03-11T10:58:17;4.43;;;0.70;;
15271;SDS011;7737;51.578;7.268;2023-03-11T11:00:45;3.27;;;0.80;;
15271;SDS011;7737;51.578;7.268;2023-03-11T11:03:15;1.87;;;0.63;;
15271;SDS011;7737;51.578;7.268;2023-03-11T11:05:55;3.93;;;0.87;;
15271;SDS011;7737;51.578;7.268;2023-03-11T11:08:24;3.83;;;0.80;;
15271;SDS011;7737;51.578;7.268;2023-03-11T11:10:51;4.73;;;1.10;;
15271;SDS011;7737;51.578;7.268;2023-03-11T11:13:20;7.83;;;0.93;;
15271;SDS011;7737;51.578;7.268;2023-03-11T11:15:52;4.13;;;0.83;;
15271;SDS011;7737;51.578;7.268;2023-03-11T11:18:21;4.67;;;0.80;;
15271;SDS011;7737;51.578;7.268;2023-03-11T11:20:53;4.53;;;0.87;;
15271;SDS011;7737;51.578;7.268;2023-03-11T11:23:25;2.83;;;0.80;;
15271;SDS011;7737;51.578;7.268;2023-03-11T11:25:56;3.57;;;0.63;;
15271;SDS011;7737;51.578;7.268;2023-03-11T11:28:24;3.73;;;0.70;;
15271;SDS011;7737;51.578;7.268;2023-03-11T11:30:51;4.57;;;0.80;;
15271;SDS011;7737;51.578;7.268;2023-03-11T11:33:23;2.87;;;0.70;;
15271;SDS011;7737;51.578;7.268;2023-03-11T11:35:53;6.67;;;0.87;;
15271;SDS011;7737;51.578;7.268;2023-03-11T11:38:23;5.87;;;1.00;;
15271;SDS011;7737;51.578;7.268;2023-03-11T11:40:52;2.63;;;0.60;;
15271;SDS011;7737;51.578;7.268;2023-03-11T11:43:21;5.40;;;0.90;;
15271;SDS011;7737;51.578;7.268;2023-03-11T11:45:56;6.63;;;1.23;;
15271;SDS011;7737;51.578;7.268;2023-03-11T11:48:28;2.73;;;0.53;;
15271;SDS011;7737;51.578;7.268;2023-03-11T11:51:07;4.63;;;1.00;;
15271;SDS011;7737;51.578;7.268;2023-03-11T11:53:43;3.77;;;0.70;;
15271;SDS011;7737;51.578;7.268;2023-03-11T11:56:12;3.90;;;0.90;;
15271;SDS011;7737;51.578;7.268;2023-03-11T11:58:39;6.27;;;1.00;;
15271;SDS011;7737;51.578;7.268;2023-03-11T12:01:09;2.60;;;0.60;;
15271;SDS011;7737;51.578;7.268;2023-03-11T12:03:46;2.97;;;0.80;;
15271;SDS011;7737;51.578;7.268;2023-03-11T12:06:23;4.90;;;1.40;;
15271;SDS011;7737;51.578;7.268;2023-03-11T12:09:03;3.60;;;0.80;;
15271;SDS011;7737;51.578;7.268;2023-03-11T12:11:39;3.03;;;0.90;;
15271;SDS011;7737;51.578;7.268;2023-03-11T12:14:11;1.83;;;0.70;;
15271;SDS011;7737;51.578;7.268;2023-03-11T12:16:45;2.50;;;0.83;;
15271;SDS011;7737;51.578;7.268;2023-03-11T12:19:21;5.18;;;1.17;;
15271;SDS011;7737;51.578;7.268;2023-03-11T12:22:04;4.67;;;0.77;;
15271;SDS011;7737;51.578;7.268;2023-03-11T12:24:54;6.73;;;0.80;;
15271;SDS011;7737;51.578;7.268;2023-03-11T12:27:38;3.30;;;0.90;;
15271;SDS011;7737;51.578;7.268;2023-03-11T12:30:11;3.07;;;0.87;;
15271;SDS011;7737;51.578;7.268;2023-03-11T12:32:42;3.23;;;0.90;;
15271;SDS011;7737;51.578;7.268;2023-03-11T12:35:19;4.03;;;0.80;;
15271;SDS011;7737;51.578;7.268;2023-03-11T12:37:56;5.07;;;1.50;;
15271;SDS011;7737;51.578;7.268;2023-03-11T12:40:47;4.17;;;0.80;;
15271;SDS011;7737;51.578;7.268;2023-03-11T12:43:24;3.53;;;1.00;;
15271;SDS011;7737;51.578;7.268;2023-03-11T12:45:54;4.53;;;1.30;;
15271;SDS011;7737;51.578;7.268;2023-03-11T12:48:24;7.23;;;2.60;;
15271;SDS011;7737;51.578;7.268;2023-03-11T12:51:00;5.10;;;1.20;;
15271;SDS011;7737;51.578;7.268;2023-03-11T12:53:43;2.50;;;0.77;;
15271;SDS011;7737;51.578;7.268;2023-03-11T12:56:17;1.92;;;0.80;;
15271;SDS011;7737;51.578;7.268;2023-03-11T12:59:03;2.60;;;1.50;;
15271;SDS011;7737;51.578;7.268;2023-03-11T13:01:50;3.95;;;1.45;;
15271;SDS011;7737;51.578;7.268;2023-03-11T13:04:29;2.28;;;0.70;;
15271;SDS011;7737;51.578;7.268;2023-03-11T13:07:07;4.00;;;0.90;;
15271;SDS011;7737;51.578;7.268;2023-03-11T13:10:01;3.97;;;0.88;;
15271;SDS011;7737;51.578;7.268;2023-03-11T13:12:41;3.10;;;0.73;;
15271;SDS011;7737;51.578;7.268;2023-03-11T13:15:23;2.42;;;0.90;;
15271;SDS011;7737;51.578;7.268;2023-03-11T13:17:56;2.50;;;0.60;;
15271;SDS011;7737;51.578;7.268;2023-03-11T13:20:43;5.40;;;3.40;;
15271;SDS011;7737;51.578;7.268;2023-03-11T13:23:27;2.53;;;2.00;;
15271;SDS011;7737;51.578;7.268;2023-03-11T13:28:53;3.03;;;1.20;;
15271;SDS011;7737;51.578;7.268;2023-03-11T13:31:36;3.85;;;1.80;;
15271;SDS011;7737;51.578;7.268;2023-03-11T13:34:13;3.75;;;1.10;;
15271;SDS011;7737;51.578;7.268;2023-03-11T13:36:45;2.67;;;1.10;;
15271;SDS011;7737;51.578;7.268;2023-03-11T13:39:35;3.08;;;1.48;;
15271;SDS011;7737;51.578;7.268;2023-03-11T13:42:14;2.40;;;1.50;;
15271;SDS011;7737;51.578;7.268;2023-03-11T13:44:48;3.88;;;1.88;;
15271;SDS011;7737;51.578;7.268;2023-03-11T13:47:15;4.22;;;1.25;;
15271;SDS011;7737;51.578;7.268;2023-03-11T13:49:44;1.67;;;0.95;;
15271;SDS011;7737;51.578;7.268;2023-03-11T13:52:16;3.58;;;1.52;;
15271;SDS011;7737;51.578;7.268;2023-03-11T13:54:51;2.75;;;1.25;;
15271;SDS011;7737;51.578;7.268;2023-03-11T13:57:27;3.17;;;1.50;;
15271;SDS011;7737;51.578;7.268;2023-03-11T13:59:57;4.28;;;1.65;;
15271;SDS011;7737;51.578;7.268;2023-03-11T14:02:39;4.07;;;1.05;;
15271;SDS011;7737;51.578;7.268;2023-03-11T14:05:12;1.95;;;1.25;;
15271;SDS011;7737;51.578;7.268;2023-03-11T14:07:42;6.43;;;1.20;;
15271;SDS011;7737;51.578;7.268;2023-03-11T14:15:52;2.78;;;1.00;;
15271;SDS011;7737;51.578;7.268;2023-03-11T14:18:30;2.70;;;1.00;;
15271;SDS011;7737;51.578;7.268;2023-03-11T14:21:02;3.03;;;0.95;;
15271;SDS011;7737;51.578;7.268;2023-03-11T14:23:32;4.20;;;1.50;;
15271;SDS011;7737;51.578;7.268;2023-03-11T14:26:00;2.30;;;1.20;;
15271;SDS011;7737;51.578;7.268;2023-03-11T14:28:30;3.05;;;1.45;;
15271;SDS011;7737;51.578;7.268;2023-03-11T14:31:01;3.25;;;0.82;;
15271;SDS011;7737;51.578;7.268;2023-03-11T14:33:30;4.03;;;1.05;;
15271;SDS011;7737;51.578;7.268;2023-03-11T14:35:57;2.78;;;0.68;;
15271;SDS011;7737;51.578;7.268;2023-03-11T14:38:28;1.48;;;0.75;;
15271;SDS011;7737;51.578;7.268;2023-03-11T14:40:55;3.40;;;0.90;;
15271;SDS011;7737;51.578;7.268;2023-03-11T14:43:23;2.47;;;0.80;;
15271;SDS011;7737;51.578;7.268;2023-03-11T14:45:50;3.70;;;1.10;;
15271;SDS011;7737;51.578;7.268;2023-03-11T14:48:21;4.95;;;1.27;;
15271;SDS011;7737;51.578;7.268;2023-03-11T14:50:52;4.75;;;0.90;;
15271;SDS011;7737;51.578;7.268;2023-03-11T14:53:26;1.40;;;0.90;;
15271;SDS011;7737;51.578;7.268;2023-03-11T14:55:57;4.80;;;1.15;;
15271;SDS011;7737;51.578;7.268;2023-03-11T14:58:27;3.35;;;0.90;;
15271;SDS011;7737;51.578;7.268;2023-03-11T15:00:59;4.30;;;0.95;;
15271;SDS011;7737;51.578;7.268;2023-03-11T15:03:32;3.70;;;0.90;;
15271;SDS011;7737;51.578;7.268;2023-03-11T15:06:01;5.45;;;1.08;;
15271;SDS011;7737;51.578;7.268;2023-03-11T15:08:32;3.08;;;1.00;;
15271;SDS011;7737;51.578;7.268;2023-03-11T15:11:06;2.88;;;0.90;;
15271;SDS011;7737;51.578;7.268;2023-03-11T15:13:43;3.45;;;0.90;;
15271;SDS011;7737;51.578;7.268;2023-03-11T15:16:21;2.53;;;0.98;;
15271;SDS011;7737;51.578;7.268;2023-03-11T15:18:52;1.42;;;0.82;;
15271;SDS011;7737;51.578;7.268;2023-03-11T15:21:19;2.83;;;0.85;;
15271;SDS011;7737;51.578;7.268;2023-03-11T15:23:48;3.42;;;1.00;;
15271;SDS011;7737;51.578;7.268;2023-03-11T15:26:17;2.83;;;1.20;;